Nepheli — 3FNC5 — position and weather

sailwx.info

Track history (hours):
 
Tides and Currents Weather Stations Pressure Air Temp Water Temp Dewpoint Dewpoint Depression Visibility Wind Speed Wind Dir Waves Ship Positions

Nepheli

Last reported at 2016-Jun-28 14:07 UTC. Time now 2016-Jun-30 19:34 UTC.
Position N 34°33' E 032°48'.

Length 90 m; draft 4.2 m.

Type: Tanker. MMSI: 370679000.

Date/timePositionNaut miles runAvg speedWind from/ knotsBaromVisibWave heightAir tempDewpointWater temp
2016-Jun-28 14:07N 34°33' E 032°48'4 6.3
2016-Jun-28 13:34N 34°32' E 032°52'6 6.1
2016-Jun-28 12:34N 34°30' E 032°59'6 6.0
2016-Jun-28 11:33N 34°32' E 033°06'6 6.2
2016-Jun-28 10:33N 34°35' E 033°12'  
2016-Jun-25 13:30N 34°32' E 033°04'9 6.9
2016-Jun-25 12:16N 34°31' E 032°54'5 7.0
2016-Jun-25 11:33N 34°33' E 032°48'7 7.0
2016-Jun-25 10:33N 34°34' E 032°39'  
2016-Jun-22 15:33N 37°38' E 023°44'8 7.6
2016-Jun-22 14:33N 37°45' E 023°39'8 7.6
2016-Jun-22 13:33N 37°52' E 023°35'6 6.4
2016-Jun-22 12:33N 37°58' E 023°33'3 3.0
2016-Jun-22 11:24N 38°01' E 023°32'0 0.0
2016-Jun-22 10:21N 38°01' E 023°32'2 2.8
2016-Jun-22 09:30N 38°02' E 023°35'3 0.1
2016-Jun-21 04:33N 37°59' E 023°33'6 6.4
2016-Jun-21 03:34N 37°54' E 023°37'8 7.8
2016-Jun-21 02:33N 37°47' E 023°41'8 7.7
2016-Jun-21 01:33N 37°40' E 023°46'8 8.0
2016-Jun-21 00:32N 37°34' E 023°53'8 7.9
2016-Jun-20 23:33N 37°30' E 024°01'  
2016-Jun-18 15:31N 34°34' E 032°42'7 7.8
2016-Jun-18 14:33N 34°32' E 032°51'  
Track history (hours):
 
Tides and Currents Weather Stations Pressure Air Temp Water Temp Dewpoint Dewpoint Depression Visibility Wind Speed Wind Dir Waves Ship Positions

Nepheli

Last reported at 2016-Jun-28 14:07 UTC. Time now 2016-Jun-30 19:34 UTC.
Position N 34°33' E 032°48'.

Length 90 m; draft 4.2 m.

Type: Tanker. MMSI: 370679000.

Date/timePositionNaut miles runAvg speedWind from/ knotsBaromVisibWave heightAir tempDewpointWater temp
2016-Jun-28 14:07N 34°33' E 032°48'4 6.3
2016-Jun-28 13:34N 34°32' E 032°52'6 6.1
2016-Jun-28 12:34N 34°30' E 032°59'6 6.0
2016-Jun-28 11:33N 34°32' E 033°06'6 6.2
2016-Jun-28 10:33N 34°35' E 033°12'  
2016-Jun-25 13:30N 34°32' E 033°04'9 6.9
2016-Jun-25 12:16N 34°31' E 032°54'5 7.0
2016-Jun-25 11:33N 34°33' E 032°48'7 7.0
2016-Jun-25 10:33N 34°34' E 032°39'  
2016-Jun-22 15:33N 37°38' E 023°44'8 7.6
2016-Jun-22 14:33N 37°45' E 023°39'8 7.6
2016-Jun-22 13:33N 37°52' E 023°35'6 6.4
2016-Jun-22 12:33N 37°58' E 023°33'3 3.0
2016-Jun-22 11:24N 38°01' E 023°32'0 0.0
2016-Jun-22 10:21N 38°01' E 023°32'2 2.8
2016-Jun-22 09:30N 38°02' E 023°35'3 0.1
2016-Jun-21 04:33N 37°59' E 023°33'6 6.4
2016-Jun-21 03:34N 37°54' E 023°37'8 7.8
2016-Jun-21 02:33N 37°47' E 023°41'8 7.7
2016-Jun-21 01:33N 37°40' E 023°46'8 8.0
2016-Jun-21 00:32N 37°34' E 023°53'8 7.9
2016-Jun-20 23:33N 37°30' E 024°01'  
2016-Jun-18 15:31N 34°34' E 032°42'7 7.8
2016-Jun-18 14:33N 34°32' E 032°51'  

Dump ship's entire track history